sensor_id;sensor_type;location;lat;lon;timestamp;pressure;altitude;pressure_sealevel;temperature;humidity
60642;BME280;46837;52.446;-1.930;2022-12-29T00:00:09;97609.23;;;8.53;80.04
60642;BME280;46837;52.446;-1.930;2022-12-29T00:01:09;97611.70;;;8.58;80.06
60642;BME280;46837;52.446;-1.930;2022-12-29T00:02:09;97607.09;;;8.57;79.81
60642;BME280;46837;52.446;-1.930;2022-12-29T00:03:09;97608.60;;;8.58;79.56
60642;BME280;46837;52.446;-1.930;2022-12-29T00:04:11;97608.62;;;8.59;79.53
60642;BME280;46837;52.446;-1.930;2022-12-29T00:05:09;97609.75;;;8.58;79.39
60642;BME280;46837;52.446;-1.930;2022-12-29T00:06:09;97617.83;;;8.60;79.70
60642;BME280;46837;52.446;-1.930;2022-12-29T00:07:10;97608.97;;;8.56;79.46
60642;BME280;46837;52.446;-1.930;2022-12-29T00:08:09;97605.91;;;8.57;79.82
60642;BME280;46837;52.446;-1.930;2022-12-29T00:09:10;97602.11;;;8.58;79.54
60642;BME280;46837;52.446;-1.930;2022-12-29T00:10:09;97606.89;;;8.60;79.65
60642;BME280;46837;52.446;-1.930;2022-12-29T00:11:10;97614.67;;;8.63;79.76
60642;BME280;46837;52.446;-1.930;2022-12-29T00:12:09;97608.71;;;8.58;79.90
60642;BME280;46837;52.446;-1.930;2022-12-29T00:13:13;97607.79;;;8.58;80.06
60642;BME280;46837;52.446;-1.930;2022-12-29T00:14:13;97607.17;;;8.58;80.03
60642;BME280;46837;52.446;-1.930;2022-12-29T00:15:13;97610.32;;;8.60;80.10
60642;BME280;46837;52.446;-1.930;2022-12-29T00:16:09;97604.97;;;8.59;79.96
60642;BME280;46837;52.446;-1.930;2022-12-29T00:17:09;97609.91;;;8.58;80.11
60642;BME280;46837;52.446;-1.930;2022-12-29T00:18:09;97617.83;;;8.59;79.97
60642;BME280;46837;52.446;-1.930;2022-12-29T00:19:09;97613.30;;;8.59;79.97
60642;BME280;46837;52.446;-1.930;2022-12-29T00:20:13;97617.21;;;8.61;80.10
60642;BME280;46837;52.446;-1.930;2022-12-29T00:21:16;97604.74;;;8.58;80.21
60642;BME280;46837;52.446;-1.930;2022-12-29T00:22:13;97612.66;;;8.60;80.45
60642;BME280;46837;52.446;-1.930;2022-12-29T00:23:13;97602.27;;;8.60;80.50
60642;BME280;46837;52.446;-1.930;2022-12-29T00:24:17;97608.05;;;8.55;80.73
60642;BME280;46837;52.446;-1.930;2022-12-29T00:25:13;97596.72;;;8.55;80.75
60642;BME280;46837;52.446;-1.930;2022-12-29T00:26:14;97598.68;;;8.56;80.84
60642;BME280;46837;52.446;-1.930;2022-12-29T00:27:13;97588.31;;;8.52;80.85
60642;BME280;46837;52.446;-1.930;2022-12-29T00:28:13;97582.00;;;8.48;80.82
60642;BME280;46837;52.446;-1.930;2022-12-29T00:29:13;97589.70;;;8.48;80.91
60642;BME280;46837;52.446;-1.930;2022-12-29T00:30:14;97582.37;;;8.43;80.96
60642;BME280;46837;52.446;-1.930;2022-12-29T00:31:13;97588.10;;;8.43;81.05
60642;BME280;46837;52.446;-1.930;2022-12-29T00:32:13;97585.33;;;8.41;81.11
60642;BME280;46837;52.446;-1.930;2022-12-29T00:33:16;97590.05;;;8.39;81.21
60642;BME280;46837;52.446;-1.930;2022-12-29T00:34:13;97594.68;;;8.36;81.19
60642;BME280;46837;52.446;-1.930;2022-12-29T00:35:12;97586.04;;;8.34;81.39
60642;BME280;46837;52.446;-1.930;2022-12-29T00:37:09;97580.59;;;8.31;81.43
60642;BME280;46837;52.446;-1.930;2022-12-29T00:38:13;97577.39;;;8.32;81.40
60642;BME280;46837;52.446;-1.930;2022-12-29T00:39:16;97579.53;;;8.33;81.16
60642;BME280;46837;52.446;-1.930;2022-12-29T00:40:13;97578.40;;;8.29;81.06
60642;BME280;46837;52.446;-1.930;2022-12-29T00:41:13;97585.94;;;8.34;80.81
60642;BME280;46837;52.446;-1.930;2022-12-29T00:42:13;97579.73;;;8.30;80.49
60642;BME280;46837;52.446;-1.930;2022-12-29T00:43:13;97581.51;;;8.31;80.67
60642;BME280;46837;52.446;-1.930;2022-12-29T00:44:10;97573.96;;;8.27;80.27
60642;BME280;46837;52.446;-1.930;2022-12-29T00:45:09;97579.58;;;8.34;80.30
60642;BME280;46837;52.446;-1.930;2022-12-29T00:46:09;97579.27;;;8.33;80.15
60642;BME280;46837;52.446;-1.930;2022-12-29T00:47:09;97571.55;;;8.31;79.99
60642;BME280;46837;52.446;-1.930;2022-12-29T00:48:09;97578.82;;;8.34;80.10
60642;BME280;46837;52.446;-1.930;2022-12-29T00:49:13;97576.43;;;8.33;80.05
60642;BME280;46837;52.446;-1.930;2022-12-29T00:50:09;97565.42;;;8.34;80.09
60642;BME280;46837;52.446;-1.930;2022-12-29T00:51:09;97567.25;;;8.36;80.08
60642;BME280;46837;52.446;-1.930;2022-12-29T00:52:12;97560.99;;;8.37;80.21
60642;BME280;46837;52.446;-1.930;2022-12-29T00:53:09;97565.31;;;8.34;80.29
60642;BME280;46837;52.446;-1.930;2022-12-29T00:54:09;97569.74;;;8.37;80.37
60642;BME280;46837;52.446;-1.930;2022-12-29T00:55:09;97573.25;;;8.36;80.53
60642;BME280;46837;52.446;-1.930;2022-12-29T00:56:09;97568.11;;;8.37;80.80
60642;BME280;46837;52.446;-1.930;2022-12-29T00:57:09;97569.00;;;8.38;81.18
60642;BME280;46837;52.446;-1.930;2022-12-29T00:58:09;97566.55;;;8.38;81.34
60642;BME280;46837;52.446;-1.930;2022-12-29T00:59:10;97567.64;;;8.41;81.42
60642;BME280;46837;52.446;-1.930;2022-12-29T01:00:12;97565.66;;;8.42;81.53
60642;BME280;46837;52.446;-1.930;2022-12-29T01:01:09;97568.19;;;8.41;81.80
60642;BME280;46837;52.446;-1.930;2022-12-29T01:02:09;97568.35;;;8.41;82.05
60642;BME280;46837;52.446;-1.930;2022-12-29T01:03:09;97565.70;;;8.41;82.38
60642;BME280;46837;52.446;-1.930;2022-12-29T01:04:09;97564.05;;;8.36;82.78
60642;BME280;46837;52.446;-1.930;2022-12-29T01:05:09;97573.47;;;8.32;83.33
60642;BME280;46837;52.446;-1.930;2022-12-29T01:06:09;97573.96;;;8.32;83.43
60642;BME280;46837;52.446;-1.930;2022-12-29T01:07:09;97569.68;;;8.30;83.71
60642;BME280;46837;52.446;-1.930;2022-12-29T01:08:09;97576.41;;;8.27;83.86
60642;BME280;46837;52.446;-1.930;2022-12-29T01:09:13;97576.06;;;8.24;84.05
60642;BME280;46837;52.446;-1.930;2022-12-29T01:10:13;97574.14;;;8.25;84.44
60642;BME280;46837;52.446;-1.930;2022-12-29T01:11:12;97579.73;;;8.30;84.45
60642;BME280;46837;52.446;-1.930;2022-12-29T01:12:09;97569.96;;;8.26;84.68
60642;BME280;46837;52.446;-1.930;2022-12-29T01:13:09;97564.76;;;8.31;84.67
60642;BME280;46837;52.446;-1.930;2022-12-29T01:14:09;97557.03;;;8.28;84.77
60642;BME280;46837;52.446;-1.930;2022-12-29T01:15:10;97562.00;;;8.30;84.99
60642;BME280;46837;52.446;-1.930;2022-12-29T01:16:09;97560.25;;;8.31;84.88
60642;BME280;46837;52.446;-1.930;2022-12-29T01:17:09;97566.55;;;8.32;84.89
60642;BME280;46837;52.446;-1.930;2022-12-29T01:18:09;97553.74;;;8.30;84.68
60642;BME280;46837;52.446;-1.930;2022-12-29T01:19:09;97555.80;;;8.27;85.02
60642;BME280;46837;52.446;-1.930;2022-12-29T01:20:09;97551.92;;;8.27;85.09
60642;BME280;46837;52.446;-1.930;2022-12-29T01:21:09;97557.84;;;8.25;85.22
60642;BME280;46837;52.446;-1.930;2022-12-29T01:22:09;97550.66;;;8.28;85.17
60642;BME280;46837;52.446;-1.930;2022-12-29T01:23:09;97543.27;;;8.29;85.25
60642;BME280;46837;52.446;-1.930;2022-12-29T01:24:09;97542.49;;;8.25;85.18
60642;BME280;46837;52.446;-1.930;2022-12-29T01:25:09;97538.13;;;8.26;85.19
60642;BME280;46837;52.446;-1.930;2022-12-29T01:26:15;97548.05;;;8.12;85.37
60642;BME280;46837;52.446;-1.930;2022-12-29T01:27:09;97545.04;;;8.19;85.57
60642;BME280;46837;52.446;-1.930;2022-12-29T01:28:09;97549.86;;;8.23;85.19
60642;BME280;46837;52.446;-1.930;2022-12-29T01:29:09;97544.88;;;8.22;85.17
60642;BME280;46837;52.446;-1.930;2022-12-29T01:30:09;97538.13;;;8.24;85.02
60642;BME280;46837;52.446;-1.930;2022-12-29T01:31:12;97555.77;;;8.25;85.08
60642;BME280;46837;52.446;-1.930;2022-12-29T01:32:09;97548.82;;;8.23;85.06
60642;BME280;46837;52.446;-1.930;2022-12-29T01:33:09;97541.35;;;8.22;85.13
60642;BME280;46837;52.446;-1.930;2022-12-29T01:34:09;97555.71;;;8.22;85.18
60642;BME280;46837;52.446;-1.930;2022-12-29T01:35:09;97560.44;;;8.22;85.06
60642;BME280;46837;52.446;-1.930;2022-12-29T01:36:10;97556.90;;;8.21;85.04
60642;BME280;46837;52.446;-1.930;2022-12-29T01:37:09;97551.20;;;8.17;85.17
60642;BME280;46837;52.446;-1.930;2022-12-29T01:38:09;97555.42;;;8.19;85.06
60642;BME280;46837;52.446;-1.930;2022-12-29T01:39:09;97562.53;;;8.23;84.94
60642;BME280;46837;52.446;-1.930;2022-12-29T01:40:09;97555.86;;;8.21;85.00
60642;BME280;46837;52.446;-1.930;2022-12-29T01:41:10;97561.65;;;8.22;84.95
60642;BME280;46837;52.446;-1.930;2022-12-29T01:42:16;97558.77;;;8.25;84.83
60642;BME280;46837;52.446;-1.930;2022-12-29T01:43:10;97558.77;;;8.25;84.66
60642;BME280;46837;52.446;-1.930;2022-12-29T01:45:12;97563.75;;;8.26;84.77
60642;BME280;46837;52.446;-1.930;2022-12-29T01:46:20;97563.94;;;8.32;84.65
60642;BME280;46837;52.446;-1.930;2022-12-29T01:47:09;97566.88;;;8.31;84.74
60642;BME280;46837;52.446;-1.930;2022-12-29T01:48:10;97564.76;;;8.31;84.61
60642;BME280;46837;52.446;-1.930;2022-12-29T01:49:19;97554.72;;;8.25;84.76
60642;BME280;46837;52.446;-1.930;2022-12-29T01:50:17;97555.45;;;8.25;84.79
60642;BME280;46837;52.446;-1.930;2022-12-29T01:51:09;97565.69;;;8.23;85.01
60642;BME280;46837;52.446;-1.930;2022-12-29T01:52:09;97560.75;;;8.23;85.03
60642;BME280;46837;52.446;-1.930;2022-12-29T01:53:18;97560.51;;;8.24;85.00
60642;BME280;46837;52.446;-1.930;2022-12-29T01:55:09;97567.04;;;8.24;85.13
60642;BME280;46837;52.446;-1.930;2022-12-29T01:56:11;97567.94;;;8.21;85.31
60642;BME280;46837;52.446;-1.930;2022-12-29T01:57:14;97564.70;;;8.24;85.40
60642;BME280;46837;52.446;-1.930;2022-12-29T01:58:09;97575.61;;;8.30;85.38
60642;BME280;46837;52.446;-1.930;2022-12-29T01:59:15;97572.08;;;8.30;85.31
60642;BME280;46837;52.446;-1.930;2022-12-29T02:00:11;97573.96;;;8.27;85.59
60642;BME280;46837;52.446;-1.930;2022-12-29T02:01:09;97566.36;;;8.26;85.66
60642;BME280;46837;52.446;-1.930;2022-12-29T02:02:09;97576.33;;;8.28;85.75
60642;BME280;46837;52.446;-1.930;2022-12-29T02:03:09;97581.32;;;8.25;85.88
60642;BME280;46837;52.446;-1.930;2022-12-29T02:04:10;97579.24;;;8.23;86.12
60642;BME280;46837;52.446;-1.930;2022-12-29T02:05:12;97573.23;;;8.22;86.26
60642;BME280;46837;52.446;-1.930;2022-12-29T02:06:12;97571.42;;;8.19;86.47
60642;BME280;46837;52.446;-1.930;2022-12-29T02:07:11;97577.57;;;8.13;86.63
60642;BME280;46837;52.446;-1.930;2022-12-29T02:08:09;97574.84;;;8.14;86.73
60642;BME280;46837;52.446;-1.930;2022-12-29T02:09:09;97578.91;;;8.12;86.72
60642;BME280;46837;52.446;-1.930;2022-12-29T02:10:09;97576.46;;;8.12;86.83
60642;BME280;46837;52.446;-1.930;2022-12-29T02:11:09;97575.80;;;8.12;87.15
60642;BME280;46837;52.446;-1.930;2022-12-29T02:12:09;97579.53;;;8.13;86.89
60642;BME280;46837;52.446;-1.930;2022-12-29T02:13:09;97573.53;;;8.10;87.08
60642;BME280;46837;52.446;-1.930;2022-12-29T02:14:11;97572.30;;;8.06;87.19
60642;BME280;46837;52.446;-1.930;2022-12-29T02:15:09;97571.37;;;8.02;87.49
60642;BME280;46837;52.446;-1.930;2022-12-29T02:18:20;97561.80;;;8.01;87.48
60642;BME280;46837;52.446;-1.930;2022-12-29T02:30:16;97550.93;;;8.09;87.58
60642;BME280;46837;52.446;-1.930;2022-12-29T02:31:17;97551.38;;;8.12;87.71
60642;BME280;46837;52.446;-1.930;2022-12-29T02:34:17;97559.71;;;8.06;88.08
60642;BME280;46837;52.446;-1.930;2022-12-29T02:36:21;97559.92;;;8.07;88.12
60642;BME280;46837;52.446;-1.930;2022-12-29T02:37:16;97556.73;;;8.02;88.38
60642;BME280;46837;52.446;-1.930;2022-12-29T02:44:14;97558.24;;;7.95;89.24
60642;BME280;46837;52.446;-1.930;2022-12-29T02:45:15;97555.78;;;7.97;89.39
60642;BME280;46837;52.446;-1.930;2022-12-29T02:49:18;97553.18;;;8.04;88.96
60642;BME280;46837;52.446;-1.930;2022-12-29T02:50:20;97545.57;;;8.03;88.96
60642;BME280;46837;52.446;-1.930;2022-12-29T02:53:13;97555.91;;;7.99;89.19
60642;BME280;46837;52.446;-1.930;2022-12-29T02:54:13;97554.57;;;7.94;89.52
60642;BME280;46837;52.446;-1.930;2022-12-29T02:55:10;97549.80;;;7.97;89.42
60642;BME280;46837;52.446;-1.930;2022-12-29T02:56:09;97551.72;;;7.95;89.28
60642;BME280;46837;52.446;-1.930;2022-12-29T02:58:17;97567.20;;;7.96;89.56
60642;BME280;46837;52.446;-1.930;2022-12-29T02:59:09;97566.74;;;7.94;89.62
60642;BME280;46837;52.446;-1.930;2022-12-29T03:00:13;97571.87;;;7.97;89.58
60642;BME280;46837;52.446;-1.930;2022-12-29T03:02:27;97585.94;;;7.96;89.80
60642;BME280;46837;52.446;-1.930;2022-12-29T03:03:16;97586.39;;;7.96;90.11
60642;BME280;46837;52.446;-1.930;2022-12-29T03:04:22;97602.20;;;7.98;90.00
60642;BME280;46837;52.446;-1.930;2022-12-29T03:07:58;97601.14;;;8.01;90.31
60642;BME280;46837;52.446;-1.930;2022-12-29T03:09:16;97623.48;;;8.05;90.16
60642;BME280;46837;52.446;-1.930;2022-12-29T03:11:13;97630.05;;;7.98;90.25
60642;BME280;46837;52.446;-1.930;2022-12-29T03:15:19;97631.66;;;7.91;89.67
60642;BME280;46837;52.446;-1.930;2022-12-29T03:18:19;97649.35;;;7.78;87.43
60642;BME280;46837;52.446;-1.930;2022-12-29T03:19:19;97654.08;;;7.78;87.14
60642;BME280;46837;52.446;-1.930;2022-12-29T03:20:10;97666.00;;;7.75;86.85
60642;BME280;46837;52.446;-1.930;2022-12-29T03:22:19;97672.64;;;7.66;86.28
60642;BME280;46837;52.446;-1.930;2022-12-29T03:23:09;97669.66;;;7.69;86.49
60642;BME280;46837;52.446;-1.930;2022-12-29T03:24:09;97686.43;;;7.65;86.17
60642;BME280;46837;52.446;-1.930;2022-12-29T03:25:18;97681.86;;;7.61;85.80
60642;BME280;46837;52.446;-1.930;2022-12-29T03:26:10;97688.88;;;7.62;85.76
60642;BME280;46837;52.446;-1.930;2022-12-29T03:27:10;97692.00;;;7.58;85.31
60642;BME280;46837;52.446;-1.930;2022-12-29T03:28:19;97691.87;;;7.49;84.70
60642;BME280;46837;52.446;-1.930;2022-12-29T03:29:09;97697.20;;;7.54;84.75
60642;BME280;46837;52.446;-1.930;2022-12-29T03:30:09;97702.15;;;7.49;84.40
60642;BME280;46837;52.446;-1.930;2022-12-29T03:31:09;97708.73;;;7.48;84.61
60642;BME280;46837;52.446;-1.930;2022-12-29T03:32:09;97709.09;;;7.45;84.30
60642;BME280;46837;52.446;-1.930;2022-12-29T03:33:14;97705.28;;;7.43;84.41
60642;BME280;46837;52.446;-1.930;2022-12-29T03:34:09;97708.77;;;7.45;84.42
60642;BME280;46837;52.446;-1.930;2022-12-29T03:35:09;97710.55;;;7.36;83.93
60642;BME280;46837;52.446;-1.930;2022-12-29T03:36:12;97714.14;;;7.31;83.70
60642;BME280;46837;52.446;-1.930;2022-12-29T03:37:14;97718.75;;;7.32;83.68
60642;BME280;46837;52.446;-1.930;2022-12-29T03:39:12;97727.58;;;7.28;83.41
60642;BME280;46837;52.446;-1.930;2022-12-29T03:40:09;97725.15;;;7.27;83.47
60642;BME280;46837;52.446;-1.930;2022-12-29T03:41:11;97740.80;;;7.23;83.24
60642;BME280;46837;52.446;-1.930;2022-12-29T03:42:14;97737.40;;;7.23;83.40
60642;BME280;46837;52.446;-1.930;2022-12-29T03:43:09;97747.61;;;7.21;83.44
60642;BME280;46837;52.446;-1.930;2022-12-29T03:44:09;97749.65;;;7.16;83.16
60642;BME280;46837;52.446;-1.930;2022-12-29T03:45:09;97751.96;;;7.14;83.28
60642;BME280;46837;52.446;-1.930;2022-12-29T03:46:09;97747.82;;;7.14;83.17
60642;BME280;46837;52.446;-1.930;2022-12-29T03:47:10;97757.19;;;7.11;83.14
60642;BME280;46837;52.446;-1.930;2022-12-29T03:48:09;97759.19;;;7.14;83.21
60642;BME280;46837;52.446;-1.930;2022-12-29T03:49:09;97759.84;;;7.14;83.18
60642;BME280;46837;52.446;-1.930;2022-12-29T03:50:11;97758.02;;;7.10;83.08
60642;BME280;46837;52.446;-1.930;2022-12-29T03:51:09;97763.75;;;7.12;83.18
60642;BME280;46837;52.446;-1.930;2022-12-29T03:52:09;97766.42;;;7.05;83.15
60642;BME280;46837;52.446;-1.930;2022-12-29T03:53:09;97767.50;;;7.03;83.12
60642;BME280;46837;52.446;-1.930;2022-12-29T03:54:09;97766.51;;;7.07;83.41
60642;BME280;46837;52.446;-1.930;2022-12-29T03:55:09;97770.93;;;7.09;83.12
60642;BME280;46837;52.446;-1.930;2022-12-29T03:56:09;97771.09;;;7.06;82.98
60642;BME280;46837;52.446;-1.930;2022-12-29T03:57:12;97774.11;;;7.09;83.12
60642;BME280;46837;52.446;-1.930;2022-12-29T03:58:09;97782.68;;;7.08;82.89
60642;BME280;46837;52.446;-1.930;2022-12-29T03:59:09;97778.09;;;7.06;82.67
60642;BME280;46837;52.446;-1.930;2022-12-29T04:00:09;97773.20;;;7.04;82.84
60642;BME280;46837;52.446;-1.930;2022-12-29T04:01:09;97778.31;;;7.03;82.70
60642;BME280;46837;52.446;-1.930;2022-12-29T04:02:09;97780.05;;;7.01;82.79
60642;BME280;46837;52.446;-1.930;2022-12-29T04:03:09;97779.09;;;7.00;82.69
60642;BME280;46837;52.446;-1.930;2022-12-29T04:04:09;97776.00;;;7.02;82.81
60642;BME280;46837;52.446;-1.930;2022-12-29T04:05:09;97781.52;;;7.01;82.73
60642;BME280;46837;52.446;-1.930;2022-12-29T04:06:09;97785.77;;;7.00;82.75
60642;BME280;46837;52.446;-1.930;2022-12-29T04:07:09;97782.52;;;6.97;82.77
60642;BME280;46837;52.446;-1.930;2022-12-29T04:08:09;97782.12;;;6.92;82.82
60642;BME280;46837;52.446;-1.930;2022-12-29T04:09:09;97784.81;;;6.88;82.83
60642;BME280;46837;52.446;-1.930;2022-12-29T04:10:09;97781.26;;;6.87;82.96
60642;BME280;46837;52.446;-1.930;2022-12-29T04:11:09;97787.43;;;6.85;83.05
60642;BME280;46837;52.446;-1.930;2022-12-29T04:12:09;97780.96;;;6.84;83.25
60642;BME280;46837;52.446;-1.930;2022-12-29T04:13:09;97786.44;;;6.84;83.18
60642;BME280;46837;52.446;-1.930;2022-12-29T04:14:09;97794.68;;;6.84;83.16
60642;BME280;46837;52.446;-1.930;2022-12-29T04:15:09;97790.81;;;6.82;83.12
60642;BME280;46837;52.446;-1.930;2022-12-29T04:16:09;97799.90;;;6.77;83.26
60642;BME280;46837;52.446;-1.930;2022-12-29T04:17:09;97805.88;;;6.80;83.40
60642;BME280;46837;52.446;-1.930;2022-12-29T04:18:09;97804.38;;;6.77;83.29
60642;BME280;46837;52.446;-1.930;2022-12-29T04:19:09;97809.39;;;6.76;83.57
60642;BME280;46837;52.446;-1.930;2022-12-29T04:20:13;97814.99;;;6.78;83.54
60642;BME280;46837;52.446;-1.930;2022-12-29T04:21:09;97808.85;;;6.78;83.37
60642;BME280;46837;52.446;-1.930;2022-12-29T04:22:09;97818.73;;;6.78;83.39
60642;BME280;46837;52.446;-1.930;2022-12-29T04:23:09;97814.66;;;6.73;83.44
60642;BME280;46837;52.446;-1.930;2022-12-29T04:24:09;97822.09;;;6.76;83.45
60642;BME280;46837;52.446;-1.930;2022-12-29T04:25:09;97818.72;;;6.76;83.45
60642;BME280;46837;52.446;-1.930;2022-12-29T04:26:09;97830.83;;;6.74;83.45
60642;BME280;46837;52.446;-1.930;2022-12-29T04:27:09;97836.65;;;6.75;83.44
60642;BME280;46837;52.446;-1.930;2022-12-29T04:28:09;97835.87;;;6.77;83.45
60642;BME280;46837;52.446;-1.930;2022-12-29T04:29:09;97835.45;;;6.78;83.36
60642;BME280;46837;52.446;-1.930;2022-12-29T04:30:09;97845.50;;;6.74;83.26
60642;BME280;46837;52.446;-1.930;2022-12-29T04:31:09;97849.02;;;6.75;83.39
60642;BME280;46837;52.446;-1.930;2022-12-29T04:32:09;97856.34;;;6.73;83.37
60642;BME280;46837;52.446;-1.930;2022-12-29T04:33:09;97854.85;;;6.71;83.30
60642;BME280;46837;52.446;-1.930;2022-12-29T04:34:09;97854.30;;;6.74;83.38
60642;BME280;46837;52.446;-1.930;2022-12-29T04:35:09;97857.46;;;6.77;83.33
60642;BME280;46837;52.446;-1.930;2022-12-29T04:36:09;97862.41;;;6.77;83.29
60642;BME280;46837;52.446;-1.930;2022-12-29T04:37:09;97863.90;;;6.77;83.31
60642;BME280;46837;52.446;-1.930;2022-12-29T04:38:09;97866.80;;;6.80;83.28
60642;BME280;46837;52.446;-1.930;2022-12-29T04:39:09;97869.57;;;6.77;83.23
60642;BME280;46837;52.446;-1.930;2022-12-29T04:40:09;97859.70;;;6.76;83.31
60642;BME280;46837;52.446;-1.930;2022-12-29T04:41:09;97864.70;;;6.76;83.36
60642;BME280;46837;52.446;-1.930;2022-12-29T04:42:09;97860.59;;;6.75;83.46
60642;BME280;46837;52.446;-1.930;2022-12-29T04:43:09;97862.00;;;6.72;83.56
60642;BME280;46837;52.446;-1.930;2022-12-29T04:44:09;97867.79;;;6.74;83.60
60642;BME280;46837;52.446;-1.930;2022-12-29T04:45:09;97872.20;;;6.73;83.46
60642;BME280;46837;52.446;-1.930;2022-12-29T04:46:09;97875.25;;;6.72;83.52
60642;BME280;46837;52.446;-1.930;2022-12-29T04:47:09;97879.04;;;6.72;83.70
60642;BME280;46837;52.446;-1.930;2022-12-29T04:48:09;97876.65;;;6.73;83.58
60642;BME280;46837;52.446;-1.930;2022-12-29T04:49:11;97875.26;;;6.71;83.60
60642;BME280;46837;52.446;-1.930;2022-12-29T04:50:09;97886.16;;;6.72;83.65
60642;BME280;46837;52.446;-1.930;2022-12-29T04:51:09;97875.77;;;6.74;83.66
60642;BME280;46837;52.446;-1.930;2022-12-29T04:52:09;97881.10;;;6.72;83.61
60642;BME280;46837;52.446;-1.930;2022-12-29T04:53:09;97887.29;;;6.75;83.56
60642;BME280;46837;52.446;-1.930;2022-12-29T04:54:09;97893.95;;;6.78;83.50
60642;BME280;46837;52.446;-1.930;2022-12-29T04:55:09;97890.77;;;6.77;83.44
60642;BME280;46837;52.446;-1.930;2022-12-29T04:56:09;97896.90;;;6.78;83.51
60642;BME280;46837;52.446;-1.930;2022-12-29T04:57:09;97894.62;;;6.72;83.42
60642;BME280;46837;52.446;-1.930;2022-12-29T04:58:09;97899.66;;;6.72;83.76
60642;BME280;46837;52.446;-1.930;2022-12-29T04:59:09;97896.62;;;6.75;83.81
60642;BME280;46837;52.446;-1.930;2022-12-29T05:00:09;97901.85;;;6.68;83.66
60642;BME280;46837;52.446;-1.930;2022-12-29T05:01:09;97897.49;;;6.73;83.85
60642;BME280;46837;52.446;-1.930;2022-12-29T05:02:09;97903.41;;;6.75;83.73
60642;BME280;46837;52.446;-1.930;2022-12-29T05:03:09;97910.69;;;6.75;83.75
60642;BME280;46837;52.446;-1.930;2022-12-29T05:04:09;97913.00;;;6.74;83.67
60642;BME280;46837;52.446;-1.930;2022-12-29T05:05:09;97908.40;;;6.75;83.71
60642;BME280;46837;52.446;-1.930;2022-12-29T05:06:09;97917.59;;;6.68;83.81
60642;BME280;46837;52.446;-1.930;2022-12-29T05:07:09;97922.75;;;6.74;83.91
60642;BME280;46837;52.446;-1.930;2022-12-29T05:08:09;97916.82;;;6.74;83.71
60642;BME280;46837;52.446;-1.930;2022-12-29T05:09:09;97929.07;;;6.76;83.63
60642;BME280;46837;52.446;-1.930;2022-12-29T05:10:09;97923.88;;;6.75;83.64
60642;BME280;46837;52.446;-1.930;2022-12-29T05:11:09;97930.60;;;6.75;83.55
60642;BME280;46837;52.446;-1.930;2022-12-29T05:12:09;97935.10;;;6.76;83.53
60642;BME280;46837;52.446;-1.930;2022-12-29T05:13:09;97929.46;;;6.78;83.45
60642;BME280;46837;52.446;-1.930;2022-12-29T05:14:09;97928.06;;;6.77;83.45
60642;BME280;46837;52.446;-1.930;2022-12-29T05:15:09;97936.18;;;6.76;83.47
60642;BME280;46837;52.446;-1.930;2022-12-29T05:16:09;97939.95;;;6.74;83.53
60642;BME280;46837;52.446;-1.930;2022-12-29T05:17:09;97935.16;;;6.75;83.60
60642;BME280;46837;52.446;-1.930;2022-12-29T05:18:09;97940.20;;;6.79;83.63
60642;BME280;46837;52.446;-1.930;2022-12-29T05:19:09;97943.27;;;6.81;83.49
60642;BME280;46837;52.446;-1.930;2022-12-29T05:20:09;97943.49;;;6.80;83.50
60642;BME280;46837;52.446;-1.930;2022-12-29T05:21:09;97945.55;;;6.84;83.45
60642;BME280;46837;52.446;-1.930;2022-12-29T05:22:09;97951.16;;;6.82;83.52
60642;BME280;46837;52.446;-1.930;2022-12-29T05:23:09;97948.11;;;6.86;83.54
60642;BME280;46837;52.446;-1.930;2022-12-29T05:24:09;97946.96;;;6.83;83.46
60642;BME280;46837;52.446;-1.930;2022-12-29T05:25:09;97954.84;;;6.86;83.60
60642;BME280;46837;52.446;-1.930;2022-12-29T05:26:09;97956.08;;;6.86;83.62
60642;BME280;46837;52.446;-1.930;2022-12-29T05:27:09;97961.18;;;6.84;83.61
60642;BME280;46837;52.446;-1.930;2022-12-29T05:28:09;97956.34;;;6.84;83.78
60642;BME280;46837;52.446;-1.930;2022-12-29T05:29:09;97967.28;;;6.85;83.77
60642;BME280;46837;52.446;-1.930;2022-12-29T05:30:09;97972.33;;;6.85;83.87
60642;BME280;46837;52.446;-1.930;2022-12-29T05:31:09;97968.47;;;6.86;83.86
60642;BME280;46837;52.446;-1.930;2022-12-29T05:32:09;97974.77;;;6.86;83.85
60642;BME280;46837;52.446;-1.930;2022-12-29T05:33:09;97970.30;;;6.84;83.97
60642;BME280;46837;52.446;-1.930;2022-12-29T05:34:10;97974.48;;;6.84;83.96
60642;BME280;46837;52.446;-1.930;2022-12-29T05:35:09;97977.97;;;6.82;84.09
60642;BME280;46837;52.446;-1.930;2022-12-29T05:36:09;97975.86;;;6.81;84.17
60642;BME280;46837;52.446;-1.930;2022-12-29T05:37:09;97979.69;;;6.84;84.22
60642;BME280;46837;52.446;-1.930;2022-12-29T05:38:09;97980.91;;;6.85;84.12
60642;BME280;46837;52.446;-1.930;2022-12-29T05:39:09;97975.32;;;6.85;84.11
60642;BME280;46837;52.446;-1.930;2022-12-29T05:40:09;97975.70;;;6.85;84.10
60642;BME280;46837;52.446;-1.930;2022-12-29T05:41:09;97977.80;;;6.86;83.99
60642;BME280;46837;52.446;-1.930;2022-12-29T05:42:09;97984.55;;;6.85;84.07
60642;BME280;46837;52.446;-1.930;2022-12-29T05:43:09;97986.29;;;6.85;84.23
60642;BME280;46837;52.446;-1.930;2022-12-29T05:44:10;97987.13;;;6.84;84.09
60642;BME280;46837;52.446;-1.930;2022-12-29T05:45:10;97984.21;;;6.83;84.19
60642;BME280;46837;52.446;-1.930;2022-12-29T05:46:09;97978.29;;;6.83;84.00
60642;BME280;46837;52.446;-1.930;2022-12-29T05:47:09;97992.36;;;6.82;83.98
60642;BME280;46837;52.446;-1.930;2022-12-29T05:48:09;97981.78;;;6.82;84.04
60642;BME280;46837;52.446;-1.930;2022-12-29T05:49:09;97992.36;;;6.83;83.99
60642;BME280;46837;52.446;-1.930;2022-12-29T05:50:09;97981.78;;;6.85;83.93
60642;BME280;46837;52.446;-1.930;2022-12-29T05:51:09;97990.67;;;6.83;83.86
60642;BME280;46837;52.446;-1.930;2022-12-29T05:52:09;97993.18;;;6.82;83.74
60642;BME280;46837;52.446;-1.930;2022-12-29T05:53:09;97997.84;;;6.82;83.77
60642;BME280;46837;52.446;-1.930;2022-12-29T05:54:09;98002.57;;;6.82;83.76
60642;BME280;46837;52.446;-1.930;2022-12-29T05:55:09;97995.55;;;6.84;83.65
60642;BME280;46837;52.446;-1.930;2022-12-29T05:56:09;97999.36;;;6.83;83.59
60642;BME280;46837;52.446;-1.930;2022-12-29T05:57:09;98003.88;;;6.81;83.56
60642;BME280;46837;52.446;-1.930;2022-12-29T05:58:09;98005.23;;;6.82;83.51
60642;BME280;46837;52.446;-1.930;2022-12-29T05:59:09;98009.55;;;6.81;83.55
60642;BME280;46837;52.446;-1.930;2022-12-29T06:00:09;98012.50;;;6.82;83.50